createdAt,value
2019-05-10T00:04:45.788Z,43.93
2019-05-10T00:09:50.307Z,45.53
2019-05-10T00:14:55.569Z,45.67
2019-05-10T00:20:00.297Z,45.83
2019-05-10T00:25:06.874Z,46.43
2019-05-10T00:30:11.693Z,42.97
2019-05-10T00:35:16.589Z,41.00
2019-05-10T00:40:21.343Z,44.17
2019-05-10T00:45:29.119Z,43.90
2019-05-10T00:50:34.128Z,43.30
2019-05-10T00:55:40.061Z,47.70
2019-05-10T01:00:44.866Z,45.27
2019-05-10T01:05:49.683Z,44.63
2019-05-10T01:10:54.407Z,46.57
2019-05-10T01:15:59.231Z,45.73
2019-05-10T01:21:03.961Z,46.23
2019-05-10T01:26:08.716Z,47.83
2019-05-10T01:31:13.618Z,43.50
2019-05-10T01:36:18.494Z,45.83
2019-05-10T01:41:23.450Z,45.97
2019-05-10T01:46:28.247Z,46.07
2019-05-10T01:51:32.968Z,49.40
2019-05-10T01:56:37.742Z,46.03
2019-05-10T02:01:42.512Z,45.00
2019-05-10T02:06:48.000Z,43.73
2019-05-10T02:11:52.860Z,43.13
2019-05-10T02:16:57.651Z,45.00
2019-05-10T02:22:02.543Z,43.97
2019-05-10T02:27:07.319Z,43.67
2019-05-10T02:32:12.155Z,44.93
2019-05-10T02:37:17.025Z,44.57
2019-05-10T02:42:21.813Z,42.77
2019-05-10T02:47:26.632Z,44.23
2019-05-10T02:52:31.474Z,43.03
2019-05-10T02:57:37.527Z,41.40
2019-05-10T03:02:43.392Z,40.10
2019-05-10T03:07:48.156Z,43.30
2019-05-10T03:12:52.900Z,43.57
2019-05-10T03:17:57.753Z,43.73
2019-05-10T03:23:02.666Z,41.03
2019-05-10T03:28:07.431Z,40.90
2019-05-10T03:33:12.300Z,40.87
2019-05-10T03:38:17.134Z,42.33
2019-05-10T03:43:22.745Z,39.67
2019-05-10T03:48:27.495Z,39.23
2019-05-10T03:53:32.676Z,42.63
2019-05-10T03:58:37.916Z,40.13
2019-05-10T04:03:42.720Z,39.73
2019-05-10T04:08:47.586Z,38.27
2019-05-10T04:13:52.354Z,38.97
2019-05-10T04:18:57.241Z,38.67
2019-05-10T04:24:01.967Z,37.23
2019-05-10T04:29:06.717Z,39.07
2019-05-10T04:34:11.505Z,37.47
2019-05-10T04:39:16.337Z,37.27
2019-05-10T04:44:21.211Z,39.53
2019-05-10T04:49:25.984Z,36.97
2019-05-10T04:54:30.718Z,37.47
2019-05-10T04:59:35.737Z,40.13
2019-05-10T05:04:40.761Z,36.33
2019-05-10T05:09:45.687Z,33.47
2019-05-10T05:14:50.594Z,32.00
2019-05-10T05:19:55.492Z,35.67
2019-05-10T05:25:01.142Z,32.50
2019-05-10T05:30:07.634Z,38.30
2019-05-10T05:35:15.393Z,29.80
2019-05-10T05:40:18.904Z,30.40
2019-05-10T05:45:28.211Z,37.27
2019-05-10T05:50:30.337Z,33.70
2019-05-10T05:55:35.095Z,38.07
2019-05-10T06:00:44.626Z,43.17
2019-05-10T06:05:47.137Z,39.43
2019-05-10T06:10:57.771Z,51.93
2019-05-10T06:16:00.316Z,60.03
2019-05-10T06:21:05.204Z,45.30
2019-05-10T06:26:21.113Z,48.83
2019-05-10T06:31:17.016Z,48.40
2019-05-10T06:36:22.135Z,50.27
2019-05-10T06:41:27.118Z,54.50
2019-05-10T06:46:32.113Z,61.87
2019-05-10T06:51:36.882Z,59.43
2019-05-10T06:56:42.175Z,56.20
2019-05-10T07:01:51.930Z,53.80
2019-05-10T07:06:53.615Z,55.63
2019-05-10T07:11:58.508Z,59.70
2019-05-10T07:17:04.499Z,61.77
2019-05-10T07:22:09.504Z,62.97
2019-05-10T07:27:14.410Z,63.83
2019-05-10T07:32:22.172Z,62.57
2019-05-10T07:37:26.892Z,66.23
2019-05-10T07:42:31.841Z,62.77
2019-05-10T07:47:36.612Z,63.07
2019-05-10T07:52:45.799Z,56.83
2019-05-10T07:57:48.013Z,61.70
2019-05-10T08:03:05.557Z,69.43
2019-05-10T08:08:00.161Z,64.03
2019-05-10T08:13:04.943Z,57.43
2019-05-10T08:18:09.971Z,60.83
2019-05-10T08:23:17.958Z,71.07
2019-05-10T08:28:23.174Z,66.23
2019-05-10T08:33:29.736Z,58.57
2019-05-10T08:38:34.669Z,67.83
2019-05-10T08:43:43.102Z,69.57
2019-05-10T08:48:51.396Z,75.87
2019-05-10T08:53:58.234Z,82.33
2019-05-10T08:59:03.636Z,80.53
2019-05-10T09:04:10.842Z,91.07
2019-05-10T09:09:14.106Z,108.17
2019-05-10T09:14:20.202Z,93.60
2019-05-10T09:19:36.038Z,92.17
2019-05-10T09:24:34.963Z,79.83
2019-05-10T09:29:39.457Z,89.27
2019-05-10T09:34:44.856Z,81.63
2019-05-10T09:39:54.879Z,82.43
2019-05-10T09:44:57.169Z,82.40
2019-05-10T09:50:02.465Z,84.40
2019-05-10T09:55:10.158Z,82.77
2019-05-10T10:00:17.434Z,87.40
2019-05-10T10:05:22.058Z,89.10
2019-05-10T10:10:31.914Z,86.77
2019-05-10T10:15:34.370Z,88.03
2019-05-10T10:20:43.559Z,83.30
2019-05-10T10:25:48.173Z,93.90
2019-05-10T10:30:59.133Z,88.13
2019-05-10T10:36:04.936Z,93.07
2019-05-10T10:41:08.069Z,88.23
2019-05-10T10:46:16.718Z,86.40
2019-05-10T10:51:20.707Z,75.93
2019-05-10T10:56:27.701Z,66.77
2019-05-10T11:01:45.972Z,69.17
2019-05-10T11:06:39.579Z,70.30
2019-05-10T11:11:45.439Z,53.73
2019-05-10T11:16:55.442Z,77.13
2019-05-10T11:22:02.159Z,74.83
2019-05-10T11:27:07.245Z,88.07
2019-05-10T11:32:15.878Z,87.20
2019-05-10T11:37:18.551Z,93.63
2019-05-10T11:42:24.095Z,74.33
2019-05-10T11:47:31.063Z,75.90
2019-05-10T11:52:36.604Z,82.63
2019-05-10T11:58:18.591Z,64.10
2019-05-10T12:03:23.811Z,80.87
2019-05-10T12:08:29.246Z,54.10
2019-05-10T12:13:34.488Z,49.83
2019-05-10T12:18:46.550Z,49.63
2019-05-10T12:23:50.844Z,42.87
2019-05-10T12:28:52.975Z,37.43
2019-05-10T12:34:00.484Z,31.57
2019-05-10T12:39:07.337Z,26.83
2019-05-10T12:44:12.373Z,21.93
2019-05-10T12:49:17.432Z,24.13
2019-05-10T12:54:23.787Z,23.90
2019-05-10T12:59:29.675Z,27.27
2019-05-10T13:04:40.498Z,22.03
2019-05-10T13:09:42.698Z,19.97
2019-05-10T13:14:52.545Z,20.50
2019-05-10T13:19:58.418Z,18.67
2019-05-10T13:25:01.271Z,21.87
2019-05-10T13:30:06.828Z,25.40
2019-05-10T13:35:11.919Z,24.20
2019-05-10T13:40:16.734Z,29.13
2019-05-10T13:45:24.130Z,25.10
2019-05-10T13:50:29.065Z,26.13
2019-05-10T13:55:35.025Z,23.00
2019-05-10T14:00:40.507Z,25.40
2019-05-10T14:05:45.451Z,25.87
2019-05-10T14:10:56.031Z,26.23
2019-05-10T14:15:57.704Z,21.60
2019-05-10T14:21:02.797Z,23.50
2019-05-10T14:26:09.393Z,23.23
2019-05-10T14:31:14.441Z,22.07
2019-05-10T14:36:19.439Z,21.63
2019-05-10T14:41:24.531Z,22.10
2019-05-10T14:46:29.494Z,21.37
2019-05-10T14:51:49.358Z,21.00
2019-05-10T14:56:41.250Z,23.00
2019-05-10T15:01:46.091Z,20.20
2019-05-10T15:06:51.003Z,23.00
2019-05-10T15:11:56.360Z,22.97
2019-05-10T15:17:01.470Z,22.03
2019-05-10T15:22:06.469Z,19.33
2019-05-10T15:27:16.126Z,19.77
2019-05-10T15:32:19.144Z,19.57
2019-05-10T15:37:24.147Z,19.87
2019-05-10T15:42:30.480Z,18.50
2019-05-10T15:47:49.953Z,18.17
2019-05-10T15:52:46.627Z,18.07
2019-05-10T15:57:51.877Z,19.77
2019-05-10T16:02:55.408Z,19.80
2019-05-10T16:08:00.551Z,17.87
2019-05-10T16:13:05.899Z,18.10
2019-05-10T16:18:10.794Z,18.00
2019-05-10T16:23:15.574Z,16.67
2019-05-10T16:28:22.571Z,19.00
2019-05-10T16:33:27.051Z,16.53
2019-05-10T16:38:31.889Z,16.43
2019-05-10T16:43:36.926Z,16.43
2019-05-10T16:48:41.986Z,15.00
2019-05-10T16:53:46.938Z,16.60
2019-05-10T16:58:54.893Z,19.67
2019-05-10T17:04:00.580Z,18.40
2019-05-10T17:09:09.485Z,20.30
2019-05-10T17:14:17.801Z,18.97
2019-05-10T17:19:20.846Z,19.07
2019-05-10T17:24:25.740Z,21.77
2019-05-10T17:29:30.627Z,18.37
2019-05-10T17:34:35.421Z,18.00
2019-05-10T17:39:40.590Z,20.87
2019-05-10T17:44:45.518Z,16.77
2019-05-10T17:49:50.661Z,16.07
2019-05-10T17:54:55.813Z,17.50
2019-05-10T18:00:00.811Z,17.87
2019-05-10T18:05:08.148Z,17.70
2019-05-10T18:10:13.451Z,17.67
2019-05-10T18:15:19.409Z,18.47
2019-05-10T18:20:24.338Z,17.13
2019-05-10T18:25:29.301Z,16.60
2019-05-10T18:30:34.263Z,18.87
2019-05-10T18:35:39.110Z,16.93
2019-05-10T18:40:44.133Z,17.23
2019-05-10T18:45:49.034Z,17.93
2019-05-10T18:50:55.526Z,16.97
2019-05-10T18:56:00.641Z,17.43
2019-05-10T19:01:05.606Z,16.73
2019-05-10T19:06:11.509Z,17.93
2019-05-10T19:11:17.969Z,16.67
2019-05-10T19:16:25.955Z,18.83
2019-05-10T19:21:30.812Z,15.93
2019-05-10T19:26:36.200Z,19.03
2019-05-10T19:31:41.842Z,16.03
2019-05-10T19:36:47.142Z,18.93
2019-05-10T19:42:03.239Z,17.57
2019-05-10T19:46:58.610Z,16.73
2019-05-10T19:52:03.463Z,16.77
2019-05-10T19:57:15.069Z,14.57
2019-05-10T20:02:15.044Z,17.13
2019-05-10T20:07:21.816Z,15.23
2019-05-10T20:12:26.699Z,15.80
2019-05-10T20:17:32.343Z,15.53
2019-05-10T20:22:37.472Z,18.40
2019-05-10T20:27:43.246Z,15.67
2019-05-10T20:32:48.128Z,15.53
2019-05-10T20:38:01.954Z,16.70
2019-05-10T20:43:00.447Z,15.60
2019-05-10T20:48:06.173Z,13.80
2019-05-10T20:53:11.071Z,15.90
2019-05-10T20:58:16.041Z,13.80
2019-05-10T21:03:21.040Z,14.43
2019-05-10T21:08:26.474Z,14.50
2019-05-10T21:13:31.595Z,13.60
2019-05-10T21:18:36.637Z,15.97
2019-05-10T21:23:41.629Z,15.27
2019-05-10T21:28:46.621Z,14.30
2019-05-10T21:34:08.296Z,15.57
2019-05-10T21:39:35.913Z,14.43
2019-05-10T21:44:41.174Z,13.57
2019-05-10T21:49:46.253Z,13.60
2019-05-10T21:54:51.395Z,15.50
2019-05-10T22:00:34.502Z,14.47
2019-05-10T22:05:39.630Z,14.10
2019-05-10T22:11:21.886Z,14.37
2019-05-10T22:16:31.498Z,15.33
2019-05-10T22:21:48.567Z,11.97
2019-05-10T22:26:53.599Z,14.97
2019-05-10T22:31:58.600Z,12.20
2019-05-10T22:37:03.583Z,12.33
2019-05-10T22:42:10.742Z,13.73
2019-05-10T22:47:15.889Z,13.30
2019-05-10T22:52:23.196Z,12.10
2019-05-10T22:57:28.258Z,13.60
2019-05-10T23:03:09.678Z,14.50
2019-05-10T23:08:14.720Z,14.07
2019-05-10T23:13:20.156Z,12.47
2019-05-10T23:18:25.273Z,14.03
2019-05-10T23:23:30.860Z,11.43
2019-05-10T23:28:35.894Z,11.70
2019-05-10T23:33:40.736Z,13.93
2019-05-10T23:38:45.670Z,14.20
2019-05-10T23:43:50.614Z,13.67
2019-05-10T23:48:55.833Z,12.70
2019-05-10T23:54:00.701Z,11.90
2019-05-10T23:59:05.554Z,12.13
